sensor_id;sensor_type;location;lat;lon;timestamp;pressure;altitude;pressure_sealevel;temperature;humidity
32131;BME280;18639;50.716;7.086;2023-02-13T00:02:02;102468.97;;;8.82;100.00
32131;BME280;18639;50.716;7.086;2023-02-13T00:04:28;102463.97;;;8.76;100.00
32131;BME280;18639;50.716;7.086;2023-02-13T00:06:53;102422.41;;;8.53;100.00
32131;BME280;18639;50.716;7.086;2023-02-13T00:09:18;102470.69;;;8.81;100.00
32131;BME280;18639;50.716;7.086;2023-02-13T00:11:43;102452.00;;;8.73;100.00
32131;BME280;18639;50.716;7.086;2023-02-13T00:14:09;102440.13;;;8.66;100.00
32131;BME280;18639;50.716;7.086;2023-02-13T00:16:34;102461.28;;;8.80;100.00
32131;BME280;18639;50.716;7.086;2023-02-13T00:19:00;102450.28;;;8.72;100.00
32131;BME280;18639;50.716;7.086;2023-02-13T00:21:25;102455.34;;;8.77;100.00
32131;BME280;18639;50.716;7.086;2023-02-13T00:23:50;102430.78;;;8.62;100.00
32131;BME280;18639;50.716;7.086;2023-02-13T00:26:16;102463.72;;;8.86;100.00
32131;BME280;18639;50.716;7.086;2023-02-13T00:28:42;102461.97;;;8.87;100.00
32131;BME280;18639;50.716;7.086;2023-02-13T00:31:13;102463.78;;;8.83;100.00
32131;BME280;18639;50.716;7.086;2023-02-13T00:33:39;102457.81;;;8.81;100.00
32131;BME280;18639;50.716;7.086;2023-02-13T00:36:05;102466.31;;;8.86;100.00
32131;BME280;18639;50.716;7.086;2023-02-13T00:38:31;102469.75;;;8.85;100.00
32131;BME280;18639;50.716;7.086;2023-02-13T00:40:56;102441.59;;;8.76;100.00
32131;BME280;18639;50.716;7.086;2023-02-13T00:43:22;102462.16;;;8.79;100.00
32131;BME280;18639;50.716;7.086;2023-02-13T00:45:47;102467.22;;;8.84;100.00
32131;BME280;18639;50.716;7.086;2023-02-13T00:48:12;102427.34;;;8.62;100.00
32131;BME280;18639;50.716;7.086;2023-02-13T00:50:38;102458.03;;;8.71;100.00
32131;BME280;18639;50.716;7.086;2023-02-13T00:53:03;102432.53;;;8.60;100.00
32131;BME280;18639;50.716;7.086;2023-02-13T00:55:28;102404.53;;;8.45;100.00
32131;BME280;18639;50.716;7.086;2023-02-13T00:57:53;102450.28;;;8.72;100.00
32131;BME280;18639;50.716;7.086;2023-02-13T01:00:19;102451.91;;;8.76;100.00
32131;BME280;18639;50.716;7.086;2023-02-13T01:02:44;102440.22;;;8.62;100.00
32131;BME280;18639;50.716;7.086;2023-02-13T01:05:09;102443.50;;;8.68;100.00
32131;BME280;18639;50.716;7.086;2023-02-13T01:07:35;102432.59;;;8.57;100.00
32131;BME280;18639;50.716;7.086;2023-02-13T01:10:00;102419.13;;;8.44;100.00
32131;BME280;18639;50.716;7.086;2023-02-13T01:12:25;102418.16;;;8.50;100.00
32131;BME280;18639;50.716;7.086;2023-02-13T01:14:51;102425.00;;;8.51;100.00
32131;BME280;18639;50.716;7.086;2023-02-13T01:17:16;102429.19;;;8.55;100.00
32131;BME280;18639;50.716;7.086;2023-02-13T01:19:41;102404.53;;;8.45;100.00
32131;BME280;18639;50.716;7.086;2023-02-13T01:22:07;102430.03;;;8.57;100.00
32131;BME280;18639;50.716;7.086;2023-02-13T01:24:33;102426.78;;;8.49;100.00
32131;BME280;18639;50.716;7.086;2023-02-13T01:26:58;102408.03;;;8.42;100.00
32131;BME280;18639;50.716;7.086;2023-02-13T01:29:28;102424.97;;;8.53;100.00
32131;BME280;18639;50.716;7.086;2023-02-13T01:31:53;102425.09;;;8.48;100.00
32131;BME280;18639;50.716;7.086;2023-02-13T01:34:18;102421.78;;;8.43;100.00
32131;BME280;18639;50.716;7.086;2023-02-13T01:36:43;102411.38;;;8.46;100.00
32131;BME280;18639;50.716;7.086;2023-02-13T01:39:10;102443.00;;;8.54;100.00
32131;BME280;18639;50.716;7.086;2023-02-13T01:41:36;102419.06;;;8.49;100.00
32131;BME280;18639;50.716;7.086;2023-02-13T01:44:01;102423.25;;;8.53;100.00
32131;BME280;18639;50.716;7.086;2023-02-13T01:46:36;102413.75;;;8.55;100.00
32131;BME280;18639;50.716;7.086;2023-02-13T01:49:24;102414.78;;;8.48;100.00
32131;BME280;18639;50.716;7.086;2023-02-13T01:51:52;102424.03;;;8.55;100.00
32131;BME280;18639;50.716;7.086;2023-02-13T01:54:24;102428.28;;;8.59;100.00
32131;BME280;18639;50.716;7.086;2023-02-13T01:56:58;102427.47;;;8.56;100.00
32131;BME280;18639;50.716;7.086;2023-02-13T01:59:32;102406.38;;;8.40;100.00
32131;BME280;18639;50.716;7.086;2023-02-13T02:02:00;102419.81;;;8.54;100.00
32131;BME280;18639;50.716;7.086;2023-02-13T02:04:29;102425.09;;;8.48;100.00
32131;BME280;18639;50.716;7.086;2023-02-13T02:06:58;102423.25;;;8.53;100.00
32131;BME280;18639;50.716;7.086;2023-02-13T02:09:30;102424.16;;;8.51;100.00
32131;BME280;18639;50.716;7.086;2023-02-13T02:12:01;102425.00;;;8.51;100.00
32131;BME280;18639;50.716;7.086;2023-02-13T02:14:27;102431.84;;;8.52;100.00
32131;BME280;18639;50.716;7.086;2023-02-13T02:16:53;102425.13;;;8.45;100.00
32131;BME280;18639;50.716;7.086;2023-02-13T02:19:29;102430.13;;;8.53;100.00
32131;BME280;18639;50.716;7.086;2023-02-13T02:22:17;102413.34;;;8.35;100.00
32131;BME280;18639;50.716;7.086;2023-02-13T02:25:08;102430.28;;;8.45;100.00
32131;BME280;18639;50.716;7.086;2023-02-13T02:28:08;102425.13;;;8.45;100.00
32131;BME280;18639;50.716;7.086;2023-02-13T02:34:13;102438.97;;;8.41;100.00
32131;BME280;18639;50.716;7.086;2023-02-13T02:42:25;102426.25;;;8.33;100.00
32131;BME280;18639;50.716;7.086;2023-02-13T02:45:19;102423.66;;;8.35;100.00
32131;BME280;18639;50.716;7.086;2023-02-13T02:50:55;102432.88;;;8.45;100.00
32131;BME280;18639;50.716;7.086;2023-02-13T02:53:28;102425.94;;;8.49;100.00
32131;BME280;18639;50.716;7.086;2023-02-13T02:58:40;102411.66;;;8.34;100.00
32131;BME280;18639;50.716;7.086;2023-02-13T03:01:27;102418.47;;;8.36;100.00
32131;BME280;18639;50.716;7.086;2023-02-13T03:04:33;102428.66;;;8.41;100.00
32131;BME280;18639;50.716;7.086;2023-02-13T03:07:19;102416.75;;;8.37;100.00
32131;BME280;18639;50.716;7.086;2023-02-13T03:09:49;102425.22;;;8.42;100.00
32131;BME280;18639;50.716;7.086;2023-02-13T03:12:47;102426.94;;;8.41;100.00
32131;BME280;18639;50.716;7.086;2023-02-13T03:15:35;102427.91;;;8.37;100.00
32131;BME280;18639;50.716;7.086;2023-02-13T03:18:20;102423.59;;;8.38;100.00
32131;BME280;18639;50.716;7.086;2023-02-13T03:21:12;102428.81;;;8.35;100.00
32131;BME280;18639;50.716;7.086;2023-02-13T03:24:06;102429.81;;;8.26;100.00
32131;BME280;18639;50.716;7.086;2023-02-13T03:26:56;102433.94;;;8.35;100.00
32131;BME280;18639;50.716;7.086;2023-02-13T03:29:44;102439.13;;;8.33;100.00
32131;BME280;18639;50.716;7.086;2023-02-13T03:32:44;102446.06;;;8.28;100.00
32131;BME280;18639;50.716;7.086;2023-02-13T03:41:05;102435.13;;;8.19;100.00
32131;BME280;18639;50.716;7.086;2023-02-13T03:46:17;102437.47;;;8.31;100.00
32131;BME280;18639;50.716;7.086;2023-02-13T03:48:44;102436.72;;;8.24;100.00
32131;BME280;18639;50.716;7.086;2023-02-13T03:51:39;102434.34;;;8.17;100.00
32131;BME280;18639;50.716;7.086;2023-02-13T03:57:24;102426.03;;;8.02;100.00
32131;BME280;18639;50.716;7.086;2023-02-13T04:00:11;102432.81;;;8.07;100.00
32131;BME280;18639;50.716;7.086;2023-02-13T04:02:42;102434.50;;;8.08;100.00
32131;BME280;18639;50.716;7.086;2023-02-13T04:05:20;102435.44;;;8.05;100.00
32131;BME280;18639;50.716;7.086;2023-02-13T04:07:46;102424.50;;;7.92;100.00
32131;BME280;18639;50.716;7.086;2023-02-13T04:10:13;102438.13;;;7.97;100.00
32131;BME280;18639;50.716;7.086;2023-02-13T04:12:56;102442.53;;;7.92;100.00
32131;BME280;18639;50.716;7.086;2023-02-13T04:15:30;102436.59;;;7.89;100.00
32131;BME280;18639;50.716;7.086;2023-02-13T04:18:22;102426.53;;;7.77;100.00
32131;BME280;18639;50.716;7.086;2023-02-13T04:20:49;102427.50;;;7.71;100.00
32131;BME280;18639;50.716;7.086;2023-02-13T04:23:15;102443.88;;;7.69;100.00
32131;BME280;18639;50.716;7.086;2023-02-13T04:25:43;102445.63;;;7.67;100.00
32131;BME280;18639;50.716;7.086;2023-02-13T04:28:09;102440.56;;;7.62;100.00
32131;BME280;18639;50.716;7.086;2023-02-13T04:30:34;102420.19;;;7.50;100.00
32131;BME280;18639;50.716;7.086;2023-02-13T04:33:00;102436.41;;;7.53;100.00
32131;BME280;18639;50.716;7.086;2023-02-13T04:35:25;102403.50;;;7.25;100.00
32131;BME280;18639;50.716;7.086;2023-02-13T04:37:50;102432.19;;;7.51;100.00
32131;BME280;18639;50.716;7.086;2023-02-13T04:40:16;102428.03;;;7.44;100.00
32131;BME280;18639;50.716;7.086;2023-02-13T04:42:41;102422.19;;;7.36;100.00
32131;BME280;18639;50.716;7.086;2023-02-13T04:45:07;102438.38;;;7.39;100.00
32131;BME280;18639;50.716;7.086;2023-02-13T04:47:32;102440.97;;;7.38;100.00
32131;BME280;18639;50.716;7.086;2023-02-13T04:49:57;102407.03;;;7.21;100.00
32131;BME280;18639;50.716;7.086;2023-02-13T04:52:23;102429.13;;;7.31;100.00
32131;BME280;18639;50.716;7.086;2023-02-13T04:54:48;102420.59;;;7.29;100.00
32131;BME280;18639;50.716;7.086;2023-02-13T04:57:14;102430.81;;;7.32;100.00
32131;BME280;18639;50.716;7.086;2023-02-13T04:59:39;102426.63;;;7.26;100.00
32131;BME280;18639;50.716;7.086;2023-02-13T05:02:05;102427.50;;;7.25;100.00
32131;BME280;18639;50.716;7.086;2023-02-13T05:04:30;102417.31;;;7.21;100.00
32131;BME280;18639;50.716;7.086;2023-02-13T05:06:55;102427.53;;;7.24;100.00
32131;BME280;18639;50.716;7.086;2023-02-13T05:09:20;102412.28;;;7.14;100.00
32131;BME280;18639;50.716;7.086;2023-02-13T05:11:46;102399.53;;;7.05;100.00
32131;BME280;18639;50.716;7.086;2023-02-13T05:14:11;102417.41;;;7.14;100.00
32131;BME280;18639;50.716;7.086;2023-02-13T05:16:36;102414.91;;;7.10;100.00
32131;BME280;18639;50.716;7.086;2023-02-13T05:19:02;102401.31;;;7.03;100.00
32131;BME280;18639;50.716;7.086;2023-02-13T05:21:27;102429.41;;;7.15;100.00
32131;BME280;18639;50.716;7.086;2023-02-13T05:24:11;102430.19;;;7.17;100.00
32131;BME280;18639;50.716;7.086;2023-02-13T05:26:36;102423.50;;;7.09;100.00
32131;BME280;18639;50.716;7.086;2023-02-13T05:29:02;102438.78;;;7.16;100.00
32131;BME280;18639;50.716;7.086;2023-02-13T05:31:55;102439.72;;;7.12;100.00
32131;BME280;18639;50.716;7.086;2023-02-13T05:34:22;102427.78;;;7.08;100.00
32131;BME280;18639;50.716;7.086;2023-02-13T05:36:47;102432.94;;;7.08;100.00
32131;BME280;18639;50.716;7.086;2023-02-13T05:39:13;102438.00;;;7.11;100.00
32131;BME280;18639;50.716;7.086;2023-02-13T05:41:39;102431.31;;;7.01;100.00
32131;BME280;18639;50.716;7.086;2023-02-13T05:44:04;102433.13;;;6.96;100.00
32131;BME280;18639;50.716;7.086;2023-02-13T05:46:30;102444.19;;;7.00;100.00
32131;BME280;18639;50.716;7.086;2023-02-13T05:48:55;102441.66;;;6.98;100.00
32131;BME280;18639;50.716;7.086;2023-02-13T05:51:20;102429.06;;;6.82;100.00
32131;BME280;18639;50.716;7.086;2023-02-13T05:53:46;102430.88;;;6.75;100.00
32131;BME280;18639;50.716;7.086;2023-02-13T05:56:11;102430.00;;;6.78;100.00
32131;BME280;18639;50.716;7.086;2023-02-13T05:58:36;102436.03;;;6.73;100.00
32131;BME280;18639;50.716;7.086;2023-02-13T06:01:02;102444.50;;;6.82;100.00
32131;BME280;18639;50.716;7.086;2023-02-13T06:03:29;102445.44;;;6.76;100.00
32131;BME280;18639;50.716;7.086;2023-02-13T06:05:55;102438.69;;;6.69;100.00
32131;BME280;18639;50.716;7.086;2023-02-13T06:08:21;102435.31;;;6.67;100.00
32131;BME280;18639;50.716;7.086;2023-02-13T06:10:48;102454.94;;;6.71;100.00
32131;BME280;18639;50.716;7.086;2023-02-13T06:13:14;102406.53;;;6.42;100.00
32131;BME280;18639;50.716;7.086;2023-02-13T06:15:39;102405.66;;;6.46;100.00
32131;BME280;18639;50.716;7.086;2023-02-13T06:18:05;102414.28;;;6.39;100.00
32131;BME280;18639;50.716;7.086;2023-02-13T06:20:30;102438.88;;;6.57;100.00
32131;BME280;18639;50.716;7.086;2023-02-13T06:22:56;102444.81;;;6.59;100.00
32131;BME280;18639;50.716;7.086;2023-02-13T06:25:21;102438.88;;;6.55;100.00
32131;BME280;18639;50.716;7.086;2023-02-13T06:27:47;102449.19;;;6.52;100.00
32131;BME280;18639;50.716;7.086;2023-02-13T06:30:13;102451.72;;;6.55;100.00
32131;BME280;18639;50.716;7.086;2023-02-13T06:32:39;102438.31;;;6.35;100.00
32131;BME280;18639;50.716;7.086;2023-02-13T06:35:04;102469.84;;;6.45;100.00
32131;BME280;18639;50.716;7.086;2023-02-13T06:37:30;102459.66;;;6.37;100.00
32131;BME280;18639;50.716;7.086;2023-02-13T06:39:55;102461.38;;;6.40;100.00
32131;BME280;18639;50.716;7.086;2023-02-13T06:42:20;102423.16;;;6.15;100.00
32131;BME280;18639;50.716;7.086;2023-02-13T06:44:46;102438.59;;;6.14;100.00
32131;BME280;18639;50.716;7.086;2023-02-13T06:47:11;102453.81;;;6.27;100.00
32131;BME280;18639;50.716;7.086;2023-02-13T06:49:36;102431.69;;;6.17;100.00
32131;BME280;18639;50.716;7.086;2023-02-13T06:52:02;102446.13;;;6.27;100.00
32131;BME280;18639;50.716;7.086;2023-02-13T06:54:27;102439.31;;;6.23;100.00
32131;BME280;18639;50.716;7.086;2023-02-13T06:56:52;102430.78;;;6.21;100.00
32131;BME280;18639;50.716;7.086;2023-02-13T06:59:17;102377.28;;;5.91;100.00
32131;BME280;18639;50.716;7.086;2023-02-13T07:01:43;102429.16;;;6.16;100.00
32131;BME280;18639;50.716;7.086;2023-02-13T07:04:08;102454.56;;;6.36;100.00
32131;BME280;18639;50.716;7.086;2023-02-13T07:06:34;102426.56;;;6.16;100.00
32131;BME280;18639;50.716;7.086;2023-02-13T07:09:00;102430.84;;;6.18;100.00
32131;BME280;18639;50.716;7.086;2023-02-13T07:11:26;102441.09;;;6.18;100.00
32131;BME280;18639;50.716;7.086;2023-02-13T07:13:52;102447.81;;;6.27;100.00
32131;BME280;18639;50.716;7.086;2023-02-13T07:16:17;102437.69;;;6.19;100.00
32131;BME280;18639;50.716;7.086;2023-02-13T07:18:43;102447.00;;;6.25;100.00
32131;BME280;18639;50.716;7.086;2023-02-13T07:21:08;102375.63;;;5.85;100.00
32131;BME280;18639;50.716;7.086;2023-02-13T07:23:33;102417.16;;;6.16;100.00
32131;BME280;18639;50.716;7.086;2023-02-13T07:25:59;102444.31;;;6.36;100.00
32131;BME280;18639;50.716;7.086;2023-02-13T07:28:26;102437.47;;;6.34;100.00
32131;BME280;18639;50.716;7.086;2023-02-13T07:30:51;102428.09;;;6.30;100.00
32131;BME280;18639;50.716;7.086;2023-02-13T07:33:17;102439.97;;;6.39;100.00
32131;BME280;18639;50.716;7.086;2023-02-13T07:35:50;102445.13;;;6.36;100.00
32131;BME280;18639;50.716;7.086;2023-02-13T07:38:16;102439.13;;;6.39;100.00
32131;BME280;18639;50.716;7.086;2023-02-13T07:40:43;102399.13;;;6.22;100.00
32131;BME280;18639;50.716;7.086;2023-02-13T07:43:08;102437.25;;;6.50;100.00
32131;BME280;18639;50.716;7.086;2023-02-13T07:45:34;102424.44;;;6.48;100.00
32131;BME280;18639;50.716;7.086;2023-02-13T07:47:59;102429.56;;;6.47;100.00
32131;BME280;18639;50.716;7.086;2023-02-13T07:50:25;102408.31;;;6.39;100.00
32131;BME280;18639;50.716;7.086;2023-02-13T07:52:58;102418.34;;;6.54;100.00
32131;BME280;18639;50.716;7.086;2023-02-13T07:55:24;102409.81;;;6.52;100.00
32131;BME280;18639;50.716;7.086;2023-02-13T07:57:50;102442.78;;;6.81;100.00
32131;BME280;18639;50.716;7.086;2023-02-13T08:00:16;102438.50;;;6.83;100.00
32131;BME280;18639;50.716;7.086;2023-02-13T08:02:42;102414.59;;;6.76;100.00
32131;BME280;18639;50.716;7.086;2023-02-13T08:05:08;102457.03;;;7.01;100.00
32131;BME280;18639;50.716;7.086;2023-02-13T08:07:33;102438.97;;;7.06;100.00
32131;BME280;18639;50.716;7.086;2023-02-13T08:09:58;102442.84;;;7.30;100.00
32131;BME280;18639;50.716;7.086;2023-02-13T08:12:42;102414.28;;;7.89;100.00
32131;BME280;18639;50.716;7.086;2023-02-13T08:15:10;102444.13;;;8.79;100.00
32131;BME280;18639;50.716;7.086;2023-02-13T08:17:36;102417.97;;;8.95;100.00
32131;BME280;18639;50.716;7.086;2023-02-13T08:20:01;102424.72;;;9.66;100.00
32131;BME280;18639;50.716;7.086;2023-02-13T08:22:26;102432.34;;;10.00;100.00
32131;BME280;18639;50.716;7.086;2023-02-13T08:24:52;102404.75;;;10.32;100.00
32131;BME280;18639;50.716;7.086;2023-02-13T08:27:17;102407.19;;;10.07;100.00
32131;BME280;18639;50.716;7.086;2023-02-13T08:29:42;102443.66;;;10.55;100.00
32131;BME280;18639;50.716;7.086;2023-02-13T08:32:08;102441.16;;;10.80;100.00
32131;BME280;18639;50.716;7.086;2023-02-13T08:34:33;102383.06;;;10.64;99.16
32131;BME280;18639;50.716;7.086;2023-02-13T08:36:58;102441.63;;;11.44;95.99
32131;BME280;18639;50.716;7.086;2023-02-13T08:39:25;102407.91;;;11.45;93.85
32131;BME280;18639;50.716;7.086;2023-02-13T08:41:50;102444.13;;;12.18;90.22
32131;BME280;18639;50.716;7.086;2023-02-13T08:44:15;102422.59;;;12.61;86.61
32131;BME280;18639;50.716;7.086;2023-02-13T08:46:40;102456.53;;;12.98;81.82
32131;BME280;18639;50.716;7.086;2023-02-13T08:49:06;102441.16;;;13.16;80.87
32131;BME280;18639;50.716;7.086;2023-02-13T08:51:31;102438.94;;;13.47;77.38
32131;BME280;18639;50.716;7.086;2023-02-13T08:53:57;102449.50;;;13.63;73.75
32131;BME280;18639;50.716;7.086;2023-02-13T08:56:22;102427.66;;;14.43;70.56
32131;BME280;18639;50.716;7.086;2023-02-13T08:58:48;102411.38;;;14.40;66.49
32131;BME280;18639;50.716;7.086;2023-02-13T09:01:14;102444.53;;;15.24;63.90
32131;BME280;18639;50.716;7.086;2023-02-13T09:03:39;102432.59;;;15.54;60.33
32131;BME280;18639;50.716;7.086;2023-02-13T09:06:04;102403.88;;;15.71;59.53
32131;BME280;18639;50.716;7.086;2023-02-13T09:08:30;102447.94;;;16.40;57.24
32131;BME280;18639;50.716;7.086;2023-02-13T09:11:00;102433.22;;;16.55;56.72
32131;BME280;18639;50.716;7.086;2023-02-13T09:13:27;102447.06;;;17.16;56.17
32131;BME280;18639;50.716;7.086;2023-02-13T09:15:57;102434.88;;;16.87;54.14
32131;BME280;18639;50.716;7.086;2023-02-13T09:18:23;102442.78;;;16.86;54.59
32131;BME280;18639;50.716;7.086;2023-02-13T09:20:48;102445.41;;;16.38;53.74
32131;BME280;18639;50.716;7.086;2023-02-13T09:23:13;102445.28;;;15.60;56.71
32131;BME280;18639;50.716;7.086;2023-02-13T09:25:38;102436.72;;;15.41;56.78
32131;BME280;18639;50.716;7.086;2023-02-13T09:28:04;102422.53;;;15.46;56.34
32131;BME280;18639;50.716;7.086;2023-02-13T09:30:29;102450.44;;;15.62;57.88
32131;BME280;18639;50.716;7.086;2023-02-13T09:32:54;102443.22;;;14.98;58.80
32131;BME280;18639;50.716;7.086;2023-02-13T09:35:21;102441.97;;;14.70;60.23
32131;BME280;18639;50.716;7.086;2023-02-13T09:37:46;102429.78;;;13.59;62.70
32131;BME280;18639;50.716;7.086;2023-02-13T09:40:17;102446.84;;;13.64;64.58
32131;BME280;18639;50.716;7.086;2023-02-13T09:42:43;102413.13;;;14.02;63.50
32131;BME280;18639;50.716;7.086;2023-02-13T09:45:11;102450.00;;;13.91;64.25
32131;BME280;18639;50.716;7.086;2023-02-13T09:47:42;102443.47;;;13.82;64.04
32131;BME280;18639;50.716;7.086;2023-02-13T09:52:48;102433.28;;;13.97;66.46
32131;BME280;18639;50.716;7.086;2023-02-13T09:55:22;102407.25;;;13.59;66.64
32131;BME280;18639;50.716;7.086;2023-02-13T09:58:07;102450.34;;;14.02;65.50
32131;BME280;18639;50.716;7.086;2023-02-13T10:00:38;102447.69;;;14.22;66.21
32131;BME280;18639;50.716;7.086;2023-02-13T10:03:16;102445.03;;;14.61;63.32
32131;BME280;18639;50.716;7.086;2023-02-13T10:05:52;102446.09;;;14.74;62.52
32131;BME280;18639;50.716;7.086;2023-02-13T10:08:40;102436.88;;;15.38;61.50
32131;BME280;18639;50.716;7.086;2023-02-13T10:14:22;102436.19;;;15.34;59.74
32131;BME280;18639;50.716;7.086;2023-02-13T10:19:43;102440.09;;;13.99;60.06
32131;BME280;18639;50.716;7.086;2023-02-13T10:22:17;102451.94;;;13.67;64.22
32131;BME280;18639;50.716;7.086;2023-02-13T10:24:47;102453.63;;;13.48;65.02
32131;BME280;18639;50.716;7.086;2023-02-13T10:27:27;102455.53;;;13.02;67.83
32131;BME280;18639;50.716;7.086;2023-02-13T10:29:57;102445.50;;;12.72;68.93
32131;BME280;18639;50.716;7.086;2023-02-13T10:32:40;102442.00;;;12.51;70.23
32131;BME280;18639;50.716;7.086;2023-02-13T10:35:18;102453.78;;;12.14;73.15
32131;BME280;18639;50.716;7.086;2023-02-13T10:37:45;102420.44;;;11.82;75.10
32131;BME280;18639;50.716;7.086;2023-02-13T10:40:16;102434.28;;;11.81;76.55
32131;BME280;18639;50.716;7.086;2023-02-13T10:43:06;102437.13;;;11.75;79.80
32131;BME280;18639;50.716;7.086;2023-02-13T10:45:56;102438.72;;;11.53;77.60
32131;BME280;18639;50.716;7.086;2023-02-13T10:51:12;102448.00;;;11.33;78.73
32131;BME280;18639;50.716;7.086;2023-02-13T10:53:54;102419.28;;;11.16;80.87
32131;BME280;18639;50.716;7.086;2023-02-13T11:02:30;102437.66;;;11.33;79.22
32131;BME280;18639;50.716;7.086;2023-02-13T11:05:01;102428.50;;;11.23;79.50
32131;BME280;18639;50.716;7.086;2023-02-13T11:07:27;102426.69;;;11.27;80.01
32131;BME280;18639;50.716;7.086;2023-02-13T11:09:58;102405.22;;;11.23;79.71
32131;BME280;18639;50.716;7.086;2023-02-13T11:12:28;102422.31;;;11.27;79.79
32131;BME280;18639;50.716;7.086;2023-02-13T11:17:26;102421.41;;;11.30;79.91
32131;BME280;18639;50.716;7.086;2023-02-13T11:19:58;102361.91;;;10.79;78.82
32131;BME280;18639;50.716;7.086;2023-02-13T11:22:35;102413.66;;;11.28;79.31
32131;BME280;18639;50.716;7.086;2023-02-13T11:25:03;102409.81;;;11.15;78.17
32131;BME280;18639;50.716;7.086;2023-02-13T11:27:36;102388.84;;;10.98;78.99
32131;BME280;18639;50.716;7.086;2023-02-13T11:33:17;102372.31;;;11.02;80.15
32131;BME280;18639;50.716;7.086;2023-02-13T11:35:45;102371.78;;;11.17;80.01
32131;BME280;18639;50.716;7.086;2023-02-13T11:40:40;102367.84;;;11.32;78.79
32131;BME280;18639;50.716;7.086;2023-02-13T11:43:17;102383.78;;;11.20;76.53
32131;BME280;18639;50.716;7.086;2023-02-13T11:45:43;102347.94;;;11.09;77.07
32131;BME280;18639;50.716;7.086;2023-02-13T11:48:19;102348.97;;;11.04;79.17
32131;BME280;18639;50.716;7.086;2023-02-13T11:50:50;102381.47;;;11.37;77.98
32131;BME280;18639;50.716;7.086;2023-02-13T11:53:19;102355.00;;;11.29;77.33
32131;BME280;18639;50.716;7.086;2023-02-13T11:56:00;102360.59;;;11.42;78.34
32131;BME280;18639;50.716;7.086;2023-02-13T11:58:28;102369.09;;;11.45;76.32
32131;BME280;18639;50.716;7.086;2023-02-13T12:01:28;102358.69;;;11.47;76.23
32131;BME280;18639;50.716;7.086;2023-02-13T12:04:14;102356.19;;;11.44;74.71
32131;BME280;18639;50.716;7.086;2023-02-13T12:07:47;102313.88;;;11.21;73.99
32131;BME280;18639;50.716;7.086;2023-02-13T12:09:56;102354.91;;;11.55;75.17
32131;BME280;18639;50.716;7.086;2023-02-13T12:12:38;102314.44;;;11.29;71.91
32131;BME280;18639;50.716;7.086;2023-02-13T12:15:17;102350.31;;;11.63;73.07
32131;BME280;18639;50.716;7.086;2023-02-13T12:17:44;102339.38;;;11.55;73.07
32131;BME280;18639;50.716;7.086;2023-02-13T12:20:14;102349.34;;;11.66;72.56
32131;BME280;18639;50.716;7.086;2023-02-13T12:23:06;102344.81;;;11.71;72.94
32131;BME280;18639;50.716;7.086;2023-02-13T12:29:21;102338.44;;;11.81;73.04
32131;BME280;18639;50.716;7.086;2023-02-13T12:35:12;102323.03;;;11.78;71.35
32131;BME280;18639;50.716;7.086;2023-02-13T12:41:13;102314.88;;;11.87;71.17
32131;BME280;18639;50.716;7.086;2023-02-13T12:44:05;102308.53;;;11.96;72.34
32131;BME280;18639;50.716;7.086;2023-02-13T12:58:02;102301.41;;;12.22;71.21
32131;BME280;18639;50.716;7.086;2023-02-13T13:00:46;102292.06;;;12.18;70.12
32131;BME280;18639;50.716;7.086;2023-02-13T13:03:34;102288.56;;;12.19;70.32
32131;BME280;18639;50.716;7.086;2023-02-13T13:06:38;102286.56;;;12.26;70.52
32131;BME280;18639;50.716;7.086;2023-02-13T13:09:27;102295.06;;;12.30;71.27
32131;BME280;18639;50.716;7.086;2023-02-13T13:12:09;102292.66;;;12.25;71.25
32131;BME280;18639;50.716;7.086;2023-02-13T13:14:48;102288.28;;;12.27;69.86
32131;BME280;18639;50.716;7.086;2023-02-13T13:17:26;102297.03;;;12.45;69.17
32131;BME280;18639;50.716;7.086;2023-02-13T13:20:27;102288.72;;;12.37;68.62
32131;BME280;18639;50.716;7.086;2023-02-13T13:23:12;102284.84;;;12.27;66.15
32131;BME280;18639;50.716;7.086;2023-02-13T13:26:11;102291.38;;;12.35;66.30
32131;BME280;18639;50.716;7.086;2023-02-13T13:28:44;102293.22;;;12.33;66.39
32131;BME280;18639;50.716;7.086;2023-02-13T13:31:12;102284.19;;;12.42;65.54
32131;BME280;18639;50.716;7.086;2023-02-13T13:33:43;102284.41;;;12.37;64.89
32131;BME280;18639;50.716;7.086;2023-02-13T13:41:16;102286.66;;;12.45;65.03
32131;BME280;18639;50.716;7.086;2023-02-13T13:43:56;102282.41;;;12.44;66.18
32131;BME280;18639;50.716;7.086;2023-02-13T13:46:36;102257.69;;;12.35;65.75
32131;BME280;18639;50.716;7.086;2023-02-13T13:49:28;102277.91;;;12.47;64.54
32131;BME280;18639;50.716;7.086;2023-02-13T13:54:45;102261.41;;;12.50;64.92
32131;BME280;18639;50.716;7.086;2023-02-13T13:57:16;102272.44;;;12.55;66.32
32131;BME280;18639;50.716;7.086;2023-02-13T14:07:49;102271.78;;;12.50;66.65
32131;BME280;18639;50.716;7.086;2023-02-13T14:12:58;102265.81;;;12.48;66.52
32131;BME280;18639;50.716;7.086;2023-02-13T14:17:58;102256.72;;;12.38;66.47
32131;BME280;18639;50.716;7.086;2023-02-13T14:20:39;102262.31;;;12.49;66.20
32131;BME280;18639;50.716;7.086;2023-02-13T14:23:29;102260.47;;;12.51;65.37
32131;BME280;18639;50.716;7.086;2023-02-13T14:31:22;102255.53;;;12.45;67.34
32131;BME280;18639;50.716;7.086;2023-02-13T14:34:01;102262.56;;;12.43;66.26
32131;BME280;18639;50.716;7.086;2023-02-13T14:36:37;102248.69;;;12.44;66.62
32131;BME280;18639;50.716;7.086;2023-02-13T14:39:06;102246.22;;;12.41;65.79
32131;BME280;18639;50.716;7.086;2023-02-13T14:44:23;102238.69;;;12.35;67.78
32131;BME280;18639;50.716;7.086;2023-02-13T14:46:51;102249.72;;;12.40;66.41
32131;BME280;18639;50.716;7.086;2023-02-13T14:49:31;102221.72;;;12.28;66.38
32131;BME280;18639;50.716;7.086;2023-02-13T14:52:01;102235.09;;;12.39;66.37
32131;BME280;18639;50.716;7.086;2023-02-13T14:54:44;102244.28;;;12.46;66.29